Observations for Trim Market St
| Time | AQI | Temp °C | Hum % | Pres Pa | CO μg/m³ | H₂S μg/m³ | NO μg/m³ | NO₂ μg/m³ | O₃ μg/m³ | SO₂ μg/m³ | PM1 μg/m³ | PM2.5 μg/m³ | PM10 μg/m³ |
|---|---|---|---|---|---|---|---|---|---|---|---|---|---|
| Sunday 23 August 2026 | |||||||||||||
| 22:21 | 3 | 14 | 63 | 57,682 | 0.3 | 0 | 1.74 | 12.08 | 72.01 | 0 | 1.43 | 3.38 | 5.52 |
| 22:20 | 3 | 14 | 63 | 57,685 | 0.3 | 0 | 1.72 | 11.84 | 62 | 0 | 0 | 2.4 | 3.52 |
| 22:19 | 3 | 14 | 63 | 57,689 | 0.3 | 0 | 1.77 | 12.08 | 62.31 | 0 | 0.71 | 2.9 | 4.18 |
| 22:18 | 3 | 14.1 | 63 | 57,694 | 0.3 | 0 | 1.78 | 12.29 | 61.99 | 0 | 0.71 | 2.9 | 4.18 |
| 22:17 | 3 | 14.1 | 63 | 57,699 | 0.31 | 0 | 1.78 | 12.56 | 59.64 | 0 | 0.71 | 3.4 | 4.85 |
| 22:15 | 3 | 14.1 | 63 | 57,709 | 0.33 | 0 | 2 | 18.68 | 49.37 | 0 | 0.71 | 3.4 | 4.85 |
| 22:12 | 3 | 14.2 | 62 | 57,718 | 0.36 | 0 | 2.11 | 24.13 | 39.09 | 0 | 0.71 | 2.42 | 3.5 |
| 22:09 | 3 | 14.3 | 62 | 57,724 | 0.35 | 0 | 1.67 | 28.04 | 34.61 | 0 | 1.43 | 3.42 | 4.84 |
| 22:07 | 3 | 14.3 | 62 | 57,729 | 0.35 | 0 | 1.61 | 24.02 | 45.65 | 0 | 0.71 | 2.43 | 3.49 |
| 22:04 | 3 | 14.4 | 62 | 57,740 | 0.32 | 0 | 1.59 | 24.28 | 51.6 | 0 | 1.43 | 3.43 | 6.18 |
| 22:02 | 3 | 14.4 | 62 | 57,748 | 0.36 | 0 | 1.42 | 23.2 | 47.09 | 0 | 2.14 | 4.43 | 7.53 |
| 21:54 | 3 | 14.6 | 61 | 57,790 | 0.35 | 0 | 1.92 | 35.07 | 31.28 | 0 | 1.43 | 3.47 | 5.49 |
| 21:53 | 3 | 14.6 | 61 | 57,794 | 0.29 | 0 | 1.91 | 23.68 | 52.97 | 0 | 1.43 | 2.98 | 4.81 |
| 21:52 | 3 | 14.6 | 61 | 57,798 | 0.29 | 0 | 1.57 | 23.33 | 52.01 | 0 | 2.85 | 4.48 | 6.17 |
| 21:51 | 3 | 14.6 | 61 | 57,801 | 0.29 | 0 | 1.63 | 15.58 | 66.39 | 0 | 0.71 | 3.48 | 4.81 |
| 21:50 | 3 | 14.7 | 61 | 57,804 | 0.3 | 0 | 1.55 | 17.76 | 65.41 | 0 | 0.71 | 2.49 | 3.44 |
| 21:49 | 3 | 14.7 | 61 | 57,810 | 0.39 | 0 | 1.57 | 14.98 | 66.25 | 0 | 0.71 | 2.49 | 3.44 |
| 21:48 | 3 | 14.7 | 61 | 57,811 | 0.27 | 0 | 1.5 | 15.93 | 67.25 | 0 | 2.14 | 4 | 6.16 |
| 21:47 | 3 | 14.7 | 61 | 57,813 | 0.28 | 0 | 1.42 | 20.6 | 55.14 | 0 | 2.14 | 3.5 | 4.8 |
| 21:46 | 3 | 14.8 | 60 | 57,816 | 0.25 | 0 | 1.27 | 13.36 | 67.72 | 0 | 0.71 | 3 | 4.8 |